createdAt,value
2022-12-04T00:02:41.906Z,25.77
2022-12-04T00:05:44.897Z,24.93
2022-12-04T00:08:48.480Z,26.73
2022-12-04T00:11:51.720Z,24.95
2022-12-04T00:18:18.217Z,24.77
2022-12-04T00:21:21.394Z,25.07
2022-12-04T00:24:26.199Z,24.15
2022-12-04T00:27:29.355Z,25.00
2022-12-04T00:30:32.909Z,26.58
2022-12-04T00:33:36.527Z,25.58
2022-12-04T00:36:42.451Z,25.87
2022-12-04T00:39:45.300Z,26.00
2022-12-04T00:42:50.502Z,26.37
2022-12-04T00:45:53.476Z,25.95
2022-12-04T00:49:02.826Z,25.50
2022-12-04T00:52:06.053Z,25.20
2022-12-04T00:55:09.751Z,25.75
2022-12-04T00:58:12.577Z,26.25
2022-12-04T01:01:20.276Z,25.55
2022-12-04T01:04:29.426Z,26.10
2022-12-04T01:07:32.448Z,24.63
2022-12-04T01:10:35.750Z,26.12
2022-12-04T01:13:39.361Z,25.95
2022-12-04T01:16:43.727Z,25.75
2022-12-04T01:19:59.008Z,26.75
2022-12-04T01:23:02.299Z,25.70
2022-12-04T01:26:05.342Z,26.42
2022-12-04T01:29:08.782Z,25.73
2022-12-04T01:32:12.035Z,26.10
2022-12-04T01:35:15.420Z,30.58
2022-12-04T01:38:18.349Z,29.17
2022-12-04T01:41:27.341Z,26.55
2022-12-04T01:44:33.169Z,27.48
2022-12-04T01:47:36.037Z,26.60
2022-12-04T01:50:38.965Z,25.62
2022-12-04T01:53:43.766Z,26.07
2022-12-04T01:56:51.901Z,26.92
2022-12-04T02:00:02.631Z,26.48
2022-12-04T02:03:05.444Z,25.20
2022-12-04T02:06:08.681Z,27.35
2022-12-04T02:09:11.659Z,29.60
2022-12-04T02:12:44.405Z,27.85
2022-12-04T02:16:02.247Z,26.50
2022-12-04T02:19:26.930Z,27.70
2022-12-04T02:22:51.562Z,25.05
2022-12-04T02:26:12.912Z,25.10
2022-12-04T02:29:37.152Z,24.75
2022-12-04T02:32:44.153Z,25.50
2022-12-04T02:36:05.848Z,25.75
2022-12-04T02:39:15.383Z,25.23
2022-12-04T02:42:33.070Z,26.13
2022-12-04T02:45:41.076Z,25.15
2022-12-04T02:48:47.017Z,24.30
2022-12-04T02:51:50.716Z,24.23
2022-12-04T02:54:58.222Z,24.40
2022-12-04T02:58:06.128Z,25.60
2022-12-04T03:01:20.789Z,26.35
2022-12-04T03:04:26.476Z,26.87
2022-12-04T03:07:40.688Z,27.13
2022-12-04T03:10:50.408Z,27.27
2022-12-04T03:14:23.740Z,27.13
2022-12-04T03:17:34.414Z,26.02
2022-12-04T03:20:38.713Z,24.95
2022-12-04T03:23:50.392Z,25.90
2022-12-04T03:26:59.010Z,25.30
2022-12-04T03:30:14.834Z,24.83
2022-12-04T03:33:21.930Z,24.70
2022-12-04T03:36:38.238Z,25.10
2022-12-04T03:39:44.120Z,25.02
2022-12-04T03:42:51.987Z,24.25
2022-12-04T03:46:10.758Z,23.07
2022-12-04T03:49:24.363Z,23.10
2022-12-04T03:52:50.018Z,21.12
2022-12-04T03:56:09.229Z,20.42
2022-12-04T03:59:24.737Z,18.30
2022-12-04T04:02:33.933Z,19.03
2022-12-04T04:05:37.437Z,18.33
2022-12-04T04:08:46.301Z,18.17
2022-12-04T04:12:07.299Z,16.92
2022-12-04T04:15:34.626Z,17.50
2022-12-04T04:18:57.479Z,15.63
2022-12-04T04:22:22.351Z,17.27
2022-12-04T04:25:26.531Z,15.73
2022-12-04T04:28:40.885Z,17.30
2022-12-04T04:31:53.493Z,15.80
2022-12-04T04:34:56.414Z,16.07
2022-12-04T04:38:14.418Z,15.82
2022-12-04T04:41:25.137Z,15.55
2022-12-04T04:44:54.706Z,16.60
2022-12-04T04:48:03.095Z,17.58
2022-12-04T04:51:09.104Z,18.60
2022-12-04T04:54:14.368Z,17.20
2022-12-04T04:57:32.321Z,16.52
2022-12-04T05:00:35.191Z,16.12
2022-12-04T05:03:47.360Z,15.95
2022-12-04T05:06:51.644Z,17.13
2022-12-04T05:09:54.837Z,16.65
2022-12-04T05:12:57.908Z,17.73
2022-12-04T05:16:04.058Z,16.45
2022-12-04T05:19:44.972Z,15.65
2022-12-04T05:22:47.949Z,14.97
2022-12-04T05:26:00.889Z,17.20
2022-12-04T05:29:04.360Z,17.75
2022-12-04T05:32:07.391Z,16.48
2022-12-04T05:35:13.404Z,16.30
2022-12-04T05:38:16.284Z,15.30
2022-12-04T05:41:19.199Z,16.45
2022-12-04T05:44:23.743Z,15.05
2022-12-04T05:47:26.606Z,15.30
2022-12-04T05:50:29.754Z,14.60
2022-12-04T05:53:35.583Z,14.07
2022-12-04T05:56:38.718Z,13.95
2022-12-04T05:59:41.673Z,12.93
2022-12-04T06:02:44.530Z,13.40
2022-12-04T06:05:47.627Z,13.82
2022-12-04T06:08:52.954Z,14.27
2022-12-04T06:11:58.572Z,15.40
2022-12-04T06:15:01.491Z,14.50
2022-12-04T06:18:04.455Z,13.25
2022-12-04T06:21:07.392Z,14.25
2022-12-04T06:24:15.421Z,13.70
2022-12-04T06:27:33.522Z,13.80
2022-12-04T06:30:36.470Z,14.25
2022-12-04T06:33:39.894Z,14.18
2022-12-04T06:36:43.024Z,14.32
2022-12-04T06:39:46.130Z,13.87
2022-12-04T06:42:48.884Z,13.82
2022-12-04T06:46:02.714Z,14.15
2022-12-04T06:49:05.566Z,13.93
2022-12-04T06:52:08.511Z,13.68
2022-12-04T06:55:11.316Z,14.53
2022-12-04T06:58:14.216Z,13.35
2022-12-04T07:01:20.266Z,13.52
2022-12-04T07:04:23.708Z,13.05
2022-12-04T07:07:26.818Z,13.07
2022-12-04T07:10:29.928Z,13.57
2022-12-04T07:13:32.804Z,13.43
2022-12-04T07:16:40.792Z,12.32
2022-12-04T07:19:44.248Z,12.20
2022-12-04T07:22:47.219Z,12.25
2022-12-04T07:25:50.164Z,12.63
2022-12-04T07:28:54.434Z,11.95
2022-12-04T07:31:57.612Z,11.45
2022-12-04T07:35:00.595Z,11.75
2022-12-04T07:38:03.344Z,11.88
2022-12-04T07:41:07.341Z,12.23
2022-12-04T07:44:10.204Z,9.68
2022-12-04T07:47:13.593Z,8.80
2022-12-04T07:50:16.822Z,8.07
2022-12-04T07:53:19.730Z,9.55
2022-12-04T07:56:22.545Z,9.23
2022-12-04T07:59:25.684Z,10.77
2022-12-04T08:02:28.696Z,10.15
2022-12-04T08:05:32.335Z,11.27
2022-12-04T08:08:36.177Z,14.82
2022-12-04T08:11:39.510Z,10.33
2022-12-04T08:14:42.309Z,10.50
2022-12-04T08:17:45.573Z,11.23
2022-12-04T08:20:48.378Z,10.90
2022-12-04T08:23:52.640Z,9.38
2022-12-04T08:26:55.428Z,12.10
2022-12-04T08:29:58.472Z,11.00
2022-12-04T08:33:01.734Z,11.50
2022-12-04T08:36:13.764Z,12.23
2022-12-04T08:39:16.606Z,11.55
2022-12-04T08:42:19.594Z,11.30
2022-12-04T08:45:22.493Z,10.93
2022-12-04T08:48:25.844Z,10.55
2022-12-04T08:51:30.628Z,9.65
2022-12-04T08:54:36.255Z,10.68
2022-12-04T08:57:39.281Z,8.70
2022-12-04T09:00:42.650Z,10.10
2022-12-04T09:03:45.587Z,10.63
2022-12-04T09:06:48.593Z,9.50
2022-12-04T09:09:51.531Z,8.35
2022-12-04T09:12:54.813Z,8.97
2022-12-04T09:15:57.922Z,8.57
2022-12-04T09:19:00.903Z,7.47
2022-12-04T09:22:04.497Z,5.95
2022-12-04T09:25:08.091Z,7.15
2022-12-04T09:28:11.116Z,7.13
2022-12-04T09:31:16.287Z,7.68
2022-12-04T09:34:19.678Z,6.78
2022-12-04T09:37:23.021Z,9.07
2022-12-04T09:40:33.732Z,9.40
2022-12-04T09:44:03.642Z,7.23
2022-12-04T09:47:20.632Z,7.57
2022-12-04T09:50:27.656Z,9.55
2022-12-04T09:53:43.059Z,8.57
2022-12-04T09:56:53.170Z,9.68
2022-12-04T09:59:56.827Z,8.03
2022-12-04T10:03:06.266Z,7.43
2022-12-04T10:06:15.173Z,7.28
2022-12-04T10:09:56.007Z,7.37
2022-12-04T10:13:47.532Z,7.60
2022-12-04T10:17:17.977Z,5.63
2022-12-04T10:20:30.100Z,6.05
2022-12-04T10:23:45.404Z,5.30
2022-12-04T10:26:49.382Z,5.03
2022-12-04T10:29:56.911Z,5.10
2022-12-04T10:33:20.103Z,4.87
2022-12-04T10:36:25.888Z,5.18
2022-12-04T10:39:45.398Z,6.20
2022-12-04T10:42:54.454Z,6.10
2022-12-04T10:45:57.404Z,6.10
2022-12-04T10:49:07.279Z,5.90
2022-12-04T10:52:12.641Z,7.35
2022-12-04T10:55:15.766Z,6.78
2022-12-04T10:58:20.766Z,6.60
2022-12-04T11:01:24.149Z,6.93
2022-12-04T11:04:29.134Z,6.10
2022-12-04T11:07:37.633Z,7.28
2022-12-04T11:10:43.513Z,7.05
2022-12-04T11:13:46.482Z,6.70
2022-12-04T11:17:07.201Z,8.20
2022-12-04T11:20:25.078Z,7.93
2022-12-04T11:23:32.470Z,7.00
2022-12-04T11:26:37.848Z,7.07
2022-12-04T11:29:45.435Z,7.60
2022-12-04T11:32:48.538Z,8.95
2022-12-04T11:35:54.578Z,6.60
2022-12-04T11:39:15.998Z,6.68
2022-12-04T11:42:18.939Z,7.22
2022-12-04T11:45:23.769Z,7.55
2022-12-04T11:48:27.605Z,7.00
2022-12-04T11:51:53.829Z,6.93
2022-12-04T11:55:11.149Z,8.15
2022-12-04T11:58:37.172Z,7.60
2022-12-04T12:01:48.666Z,8.00
2022-12-04T12:05:24.630Z,7.87
2022-12-04T12:08:46.673Z,8.97
2022-12-04T12:11:57.659Z,8.57
2022-12-04T12:15:03.587Z,8.13
2022-12-04T12:18:33.346Z,9.15
2022-12-04T12:21:50.154Z,9.68
2022-12-04T12:25:20.108Z,9.90
2022-12-04T12:28:51.931Z,10.55
2022-12-04T12:32:29.034Z,10.40
2022-12-04T12:35:40.482Z,9.55
2022-12-04T12:38:51.767Z,9.45
2022-12-04T12:41:57.282Z,10.17
2022-12-04T12:45:07.443Z,11.18
2022-12-04T12:48:19.784Z,10.20
2022-12-04T12:51:48.565Z,10.80
2022-12-04T12:54:59.605Z,11.12
2022-12-04T12:58:12.310Z,11.57
2022-12-04T13:01:37.271Z,11.27
2022-12-04T13:04:50.545Z,11.98
2022-12-04T13:08:15.863Z,11.98
2022-12-04T13:11:21.395Z,14.13
2022-12-04T13:14:24.540Z,14.53
2022-12-04T13:17:37.743Z,13.57
2022-12-04T13:20:49.585Z,38.80
2022-12-04T13:24:16.039Z,14.35
2022-12-04T13:27:50.620Z,14.90
2022-12-04T13:31:02.707Z,27.80
2022-12-04T13:34:11.384Z,20.30
2022-12-04T13:37:35.845Z,40.03
2022-12-04T13:40:41.640Z,17.75
2022-12-04T13:43:45.352Z,22.73
2022-12-04T13:46:54.145Z,37.83
2022-12-04T13:50:30.931Z,37.97
2022-12-04T13:53:37.837Z,22.75
2022-12-04T13:56:42.951Z,31.92
2022-12-04T13:59:46.525Z,18.27
2022-12-04T14:02:55.394Z,19.00
2022-12-04T14:06:00.357Z,44.17
2022-12-04T14:09:17.790Z,18.62
2022-12-04T14:12:26.917Z,21.50
2022-12-04T14:15:32.429Z,20.48
2022-12-04T14:18:35.438Z,18.67
2022-12-04T14:21:40.422Z,16.83
2022-12-04T14:24:43.258Z,18.02
2022-12-04T14:27:52.062Z,19.35
2022-12-04T14:31:15.202Z,19.83
2022-12-04T14:34:29.542Z,19.13
2022-12-04T14:37:37.234Z,51.50
2022-12-04T14:40:45.648Z,33.58
2022-12-04T14:43:52.065Z,18.42
2022-12-04T14:46:59.293Z,15.68
2022-12-04T14:50:28.734Z,16.87
2022-12-04T14:53:49.250Z,17.42
2022-12-04T14:57:20.505Z,15.75
2022-12-04T15:00:26.787Z,17.02
2022-12-04T15:03:32.493Z,17.80
2022-12-04T15:06:36.301Z,17.77
2022-12-04T15:09:58.236Z,20.48
2022-12-04T15:13:01.154Z,19.23
2022-12-04T15:16:11.537Z,18.95
2022-12-04T15:19:19.145Z,23.65
2022-12-04T15:22:28.083Z,71.70
2022-12-04T15:25:44.719Z,536.78
2022-12-04T15:28:55.027Z,148.87
2022-12-04T15:32:03.189Z,85.22
2022-12-04T15:35:13.590Z,71.53
2022-12-04T15:38:18.749Z,65.20
2022-12-04T15:41:30.954Z,29.73
2022-12-04T15:44:35.707Z,29.80
2022-12-04T15:47:41.584Z,26.12
2022-12-04T15:50:44.744Z,23.87
2022-12-04T15:53:48.517Z,24.47
2022-12-04T15:57:07.051Z,25.05
2022-12-04T16:00:32.937Z,21.98
2022-12-04T16:03:42.443Z,25.20
2022-12-04T16:06:49.949Z,25.02
2022-12-04T16:10:02.628Z,28.83
2022-12-04T16:13:31.389Z,24.12
2022-12-04T16:16:37.785Z,21.73
2022-12-04T16:19:42.097Z,22.60
2022-12-04T16:22:45.791Z,22.37
2022-12-04T16:25:53.360Z,21.20
2022-12-04T16:28:57.193Z,21.00
2022-12-04T16:32:12.986Z,22.13
2022-12-04T16:35:17.701Z,21.83
2022-12-04T16:38:20.902Z,24.35
2022-12-04T16:41:24.498Z,23.23
2022-12-04T16:44:27.819Z,22.13
2022-12-04T16:47:30.938Z,20.42
2022-12-04T16:50:34.054Z,20.88
2022-12-04T16:53:37.248Z,21.42
2022-12-04T16:56:40.604Z,21.10
2022-12-04T16:59:46.810Z,20.83
2022-12-04T17:02:50.217Z,20.33
2022-12-04T17:05:53.188Z,20.35
2022-12-04T17:08:56.310Z,20.08
2022-12-04T17:11:59.292Z,20.03
2022-12-04T17:15:10.885Z,25.88
2022-12-04T17:18:20.793Z,23.58
2022-12-04T17:21:24.551Z,20.37
2022-12-04T17:24:27.974Z,20.77
2022-12-04T17:27:32.217Z,21.13
2022-12-04T17:30:36.458Z,23.75
2022-12-04T17:33:39.542Z,20.83
2022-12-04T17:36:43.202Z,25.88
2022-12-04T17:39:46.769Z,23.58
2022-12-04T17:42:49.781Z,23.30
2022-12-04T17:45:52.877Z,27.23
2022-12-04T17:48:57.180Z,24.80
2022-12-04T17:52:10.295Z,24.42
2022-12-04T17:55:13.487Z,32.28
2022-12-04T17:58:16.753Z,33.27
2022-12-04T18:01:25.106Z,31.77
2022-12-04T18:04:28.300Z,40.50
2022-12-04T18:07:31.810Z,146.20
2022-12-04T18:10:35.382Z,210.45
2022-12-04T18:13:41.878Z,265.77
2022-12-04T18:16:53.258Z,225.10
2022-12-04T18:20:02.651Z,195.12
2022-12-04T18:23:07.729Z,121.40
2022-12-04T18:26:12.377Z,179.15
2022-12-04T18:29:19.300Z,153.53
2022-12-04T18:32:22.406Z,73.80
2022-12-04T18:35:28.274Z,41.65
2022-12-04T18:38:32.407Z,37.85
2022-12-04T18:41:36.836Z,41.00
2022-12-04T18:44:41.086Z,40.90
2022-12-04T18:47:44.148Z,32.30
2022-12-04T18:50:47.313Z,32.88
2022-12-04T18:53:53.721Z,95.65
2022-12-04T18:56:57.669Z,53.05
2022-12-04T19:00:03.894Z,21.77
2022-12-04T19:03:15.416Z,33.33
2022-12-04T19:06:33.933Z,46.17
2022-12-04T19:10:10.418Z,22.00
2022-12-04T19:13:12.616Z,19.27
2022-12-04T19:16:17.926Z,18.97
2022-12-04T19:19:27.484Z,17.85
2022-12-04T19:22:36.923Z,19.10
2022-12-04T19:25:41.275Z,18.37
2022-12-04T19:28:44.662Z,19.65
2022-12-04T19:31:48.038Z,18.10
2022-12-04T19:34:54.002Z,16.87
2022-12-04T19:38:01.125Z,17.90
2022-12-04T19:41:13.727Z,17.83
2022-12-04T19:47:46.384Z,17.30
2022-12-04T19:50:50.555Z,16.25
2022-12-04T19:53:55.732Z,17.23
2022-12-04T19:57:01.116Z,16.25
2022-12-04T20:00:06.102Z,16.35
2022-12-04T20:03:10.535Z,16.53
2022-12-04T20:06:16.864Z,14.70
2022-12-04T20:09:22.123Z,16.85
2022-12-04T20:12:26.471Z,15.38
2022-12-04T20:15:29.763Z,14.32
2022-12-04T20:18:33.551Z,14.50
2022-12-04T20:21:36.753Z,14.68
2022-12-04T20:24:39.942Z,16.75
2022-12-04T20:27:44.678Z,15.88
2022-12-04T20:30:50.076Z,18.37
2022-12-04T20:33:54.754Z,17.37
2022-12-04T20:36:59.227Z,17.15
2022-12-04T20:40:07.795Z,15.63
2022-12-04T20:43:13.810Z,16.62
2022-12-04T20:46:24.712Z,16.50
2022-12-04T20:49:28.000Z,15.83
2022-12-04T20:52:31.990Z,15.40
2022-12-04T20:55:39.650Z,15.48
2022-12-04T20:58:43.904Z,16.20
2022-12-04T21:01:49.959Z,17.55
2022-12-04T21:04:53.048Z,16.10
2022-12-04T21:07:55.943Z,16.10
2022-12-04T21:10:59.132Z,16.83
2022-12-04T21:14:22.138Z,16.15
2022-12-04T21:17:25.032Z,15.95
2022-12-04T21:20:29.626Z,15.93
2022-12-04T21:23:32.544Z,15.60
2022-12-04T21:26:35.832Z,16.42
2022-12-04T21:29:39.765Z,18.33
2022-12-04T21:32:45.654Z,17.48
2022-12-04T21:35:48.538Z,15.67
2022-12-04T21:38:51.794Z,16.27
2022-12-04T21:42:13.294Z,15.25
2022-12-04T21:45:16.100Z,15.40
2022-12-04T21:48:22.433Z,15.20
2022-12-04T21:51:48.703Z,16.73
2022-12-04T21:54:52.618Z,14.68
2022-12-04T21:57:55.837Z,18.55
2022-12-04T22:00:58.692Z,15.48
2022-12-04T22:04:01.548Z,16.67
2022-12-04T22:07:04.449Z,17.10
2022-12-04T22:10:10.820Z,16.05
2022-12-04T22:13:14.164Z,16.23
2022-12-04T22:16:19.596Z,15.73
2022-12-04T22:19:22.975Z,15.73
2022-12-04T22:22:25.875Z,15.00
2022-12-04T22:25:32.228Z,16.65
2022-12-04T22:28:35.489Z,16.65
2022-12-04T22:31:38.471Z,16.58
2022-12-04T22:34:47.436Z,18.55
2022-12-04T22:37:50.234Z,18.70
2022-12-04T22:40:53.228Z,20.33
2022-12-04T22:43:56.130Z,19.90
2022-12-04T22:47:01.921Z,20.23
2022-12-04T22:50:06.464Z,20.60
2022-12-04T22:53:09.360Z,20.63
2022-12-04T22:56:14.977Z,20.33
2022-12-04T22:59:17.856Z,18.98
2022-12-04T23:02:24.050Z,18.40
2022-12-04T23:05:27.144Z,14.93
2022-12-04T23:08:30.284Z,13.27
2022-12-04T23:11:33.638Z,11.50
2022-12-04T23:14:37.142Z,12.40
2022-12-04T23:17:40.003Z,12.37
2022-12-04T23:20:42.969Z,10.80
2022-12-04T23:23:46.925Z,9.67
2022-12-04T23:26:49.743Z,10.90
2022-12-04T23:30:04.532Z,9.80
2022-12-04T23:33:07.520Z,9.68
2022-12-04T23:36:11.978Z,10.50
2022-12-04T23:39:14.859Z,10.90
2022-12-04T23:42:17.826Z,10.07
2022-12-04T23:45:20.655Z,10.60
2022-12-04T23:48:24.619Z,9.15
2022-12-04T23:51:28.190Z,8.88
2022-12-04T23:54:35.210Z,8.37
2022-12-04T23:57:37.951Z,8.15
